Time;durP1;ratioP1;P1;durP2;ratioP2;P2;SDS_P1;SDS_P2;PMS_P1;PMS_P2;Temp;Humidity;BMP_temperature;BMP_pressure;BME280_temperature;BME280_humidity;BME280_pressure;Samples;Min_cycle;Max_cycle;Signal;HPM_P1;HPM_P2
2023/10/21 00:01:48;;;;;;;64.60;37.63;;;;;;;10.19;100.00;97228.84;5014290;28;20074;-84
2023/10/21 00:04:14;;;;;;;51.35;37.58;;;;;;;10.05;100.00;97223.16;5032429;28;20040;-84
2023/10/21 00:06:40;;;;;;;52.92;36.97;;;;;;;10.19;100.00;97254.88;5014497;28;20481;-84
2023/10/21 00:09:05;;;;;;;61.08;37.65;;;;;;;10.37;100.00;97282.97;5032043;28;20025;-84
2023/10/21 00:11:31;;;;;;;71.70;40.17;;;;;;;10.14;100.00;97256.22;5032085;28;20477;-84
2023/10/21 00:13:57;;;;;;;55.10;36.92;;;;;;;10.33;100.00;97279.78;5031851;28;20052;-85
2023/10/21 00:16:22;;;;;;;77.35;40.45;;;;;;;10.33;100.00;97291.97;5032140;28;20040;-85
2023/10/21 00:18:48;;;;;;;89.97;41.53;;;;;;;10.36;100.00;97292.50;5014224;28;20036;-84
2023/10/21 00:21:13;;;;;;;67.20;39.83;;;;;;;10.17;100.00;97279.38;5031973;28;20030;-84
2023/10/21 00:23:39;;;;;;;65.82;39.65;;;;;;;9.98;100.00;97278.28;5031846;28;20044;-84
2023/10/21 00:26:04;;;;;;;51.83;37.33;;;;;;;9.97;100.00;97278.41;5031706;28;20534;-84
2023/10/21 00:28:29;;;;;;;48.05;36.13;;;;;;;10.06;100.00;97279.41;5031678;28;20527;-85
2023/10/21 00:30:54;;;;;;;85.25;43.08;;;;;;;9.96;100.00;97253.34;5031792;28;20109;-84
2023/10/21 00:33:20;;;;;;;72.75;39.42;;;;;;;10.10;100.00;97281.66;5032066;28;20388;-84
2023/10/21 00:35:45;;;;;;;64.03;38.45;;;;;;;9.98;100.00;97254.03;5031699;28;20494;-84
2023/10/21 00:38:11;;;;;;;66.20;39.72;;;;;;;10.11;100.00;97274.66;5031869;28;20427;-84
2023/10/21 00:40:37;;;;;;;71.05;40.13;;;;;;;9.84;100.00;97242.19;5013946;28;20025;-84
2023/10/21 00:43:03;;;;;;;50.33;35.40;;;;;;;10.05;100.00;97277.78;5013736;28;20029;-85
2023/10/21 00:45:28;;;;;;;55.97;37.60;;;;;;;10.14;100.00;97282.22;5031892;28;20634;-84
2023/10/21 00:47:53;;;;;;;49.95;36.15;;;;;;;10.04;100.00;97279.56;5014013;28;20026;-85
2023/10/21 00:50:20;;;;;;;52.20;37.17;;;;;;;10.00;100.00;97291.16;5032106;28;20025;-84
2023/10/21 00:52:48;;;;;;;43.90;33.78;;;;;;;10.00;100.00;97284.19;5031765;28;20037;-84
2023/10/21 00:55:14;;;;;;;41.67;31.83;;;;;;;9.84;100.00;97264.75;5031716;28;20028;-85
2023/10/21 00:57:40;;;;;;;43.97;33.03;;;;;;;10.06;100.00;97285.44;5031541;28;20029;-84
2023/10/21 01:00:11;;;;;;;41.08;30.17;;;;;;;9.87;100.00;97247.13;5031661;28;20025;-85
2023/10/21 01:02:42;;;;;;;40.72;31.38;;;;;;;10.09;100.00;97298.22;5013836;28;20030;-85
2023/10/21 01:05:07;;;;;;;46.28;32.60;;;;;;;10.28;100.00;97335.72;5013882;28;20072;-85
2023/10/21 01:07:34;;;;;;;43.53;32.05;;;;;;;10.08;100.00;97304.38;5013714;28;20416;-85
2023/10/21 01:10:00;;;;;;;44.00;33.30;;;;;;;10.29;100.00;97353.84;5016359;28;20029;-84
2023/10/21 01:12:25;;;;;;;42.50;31.70;;;;;;;10.19;100.00;97327.69;5035595;28;20091;-85
2023/10/21 01:14:52;;;;;;;46.03;32.33;;;;;;;10.03;100.00;97298.72;5017376;28;20428;-84
2023/10/21 01:17:17;;;;;;;42.10;31.75;;;;;;;10.34;100.00;97345.66;5035419;28;20076;-84
2023/10/21 01:19:43;;;;;;;48.75;33.92;;;;;;;10.23;100.00;97325.69;5035252;28;20053;-85
2023/10/21 01:22:08;;;;;;;38.25;29.38;;;;;;;10.40;100.00;97350.34;5017196;28;20025;-84
2023/10/21 01:24:34;;;;;;;43.72;32.28;;;;;;;10.30;100.00;97331.25;5035022;28;20551;-85
2023/10/21 01:26:59;;;;;;;42.20;30.85;;;;;;;10.31;100.00;97333.72;5017009;28;20430;-85
2023/10/21 01:29:24;;;;;;;44.53;31.30;;;;;;;10.31;100.00;97344.13;5035568;28;20075;-85
2023/10/21 01:31:50;;;;;;;43.63;30.08;;;;;;;10.10;100.00;97312.03;5017157;28;20053;-85
2023/10/21 01:34:15;;;;;;;41.08;30.77;;;;;;;10.29;100.00;97374.66;5035072;28;20021;-85
2023/10/21 01:36:40;;;;;;;44.22;31.23;;;;;;;10.41;100.00;97402.28;5017117;28;20033;-85
2023/10/21 01:39:10;;;;;;;41.60;31.23;;;;;;;10.47;100.00;97419.16;5034646;28;20079;-84
2023/10/21 01:41:37;;;;;;;44.13;31.80;;;;;;;10.30;100.00;97397.13;5017194;28;20021;-85
2023/10/21 01:44:02;;;;;;;43.58;32.22;;;;;;;10.42;100.00;97414.31;5034767;28;20030;-85
2023/10/21 01:46:27;;;;;;;43.00;30.45;;;;;;;10.42;100.00;97419.53;5034835;28;20126;-85
2023/10/21 01:48:53;;;;;;;40.53;29.52;;;;;;;10.46;100.00;97430.53;5034390;28;20018;-85
2023/10/21 01:51:18;;;;;;;39.90;30.08;;;;;;;10.39;100.00;97424.97;5034677;28;20021;-85
2023/10/21 01:53:44;;;;;;;42.65;30.02;;;;;;;10.51;100.00;97436.19;5034638;28;20025;-84
2023/10/21 01:56:09;;;;;;;42.15;31.13;;;;;;;10.19;100.00;97386.72;5034488;28;20087;-85
2023/10/21 01:58:36;;;;;;;42.90;30.52;;;;;;;10.24;100.00;97401.03;5016904;28;20392;-85
2023/10/21 02:01:11;;;;;;;40.53;29.38;;;;;;;10.23;100.00;97399.34;5034220;28;20168;-85
2023/10/21 02:03:37;;;;;;;41.28;30.92;;;;;;;10.43;100.00;97426.38;5034475;28;20036;-85
2023/10/21 02:06:06;;;;;;;43.33;30.52;;;;;;;10.48;100.00;97429.44;5034185;28;20025;-85
2023/10/21 02:08:32;;;;;;;43.38;30.48;;;;;;;10.37;100.00;97407.84;5034308;28;20026;-85
2023/10/21 02:10:57;;;;;;;38.70;28.83;;;;;;;10.42;100.00;97421.31;5016533;28;20412;-85
2023/10/21 02:13:23;;;;;;;42.05;29.63;;;;;;;10.44;100.00;97435.00;5034266;28;20087;-85
2023/10/21 02:15:50;;;;;;;37.17;27.48;;;;;;;10.54;100.00;97450.72;5034554;28;20037;-85
2023/10/21 02:18:16;;;;;;;41.80;29.48;;;;;;;10.31;100.00;97413.53;5034308;28;20507;-85
2023/10/21 02:20:41;;;;;;;42.90;31.48;;;;;;;10.47;100.00;97439.97;5032966;28;20030;-85
2023/10/21 02:23:06;;;;;;;46.63;32.83;;;;;;;10.31;100.00;97414.38;5033840;28;20030;-85
2023/10/21 02:25:32;;;;;;;42.22;31.25;;;;;;;10.38;100.00;97425.94;5034196;28;20026;-85
2023/10/21 02:27:59;;;;;;;43.17;31.60;;;;;;;10.47;100.00;97432.16;5033772;28;20128;-85
2023/10/21 02:30:25;;;;;;;42.05;30.83;;;;;;;10.25;100.00;97373.25;5016108;28;20499;-85
2023/10/21 02:32:50;;;;;;;42.30;30.63;;;;;;;10.50;100.00;97437.13;5034064;28;20029;-85
2023/10/21 02:35:15;;;;;;;43.05;30.67;;;;;;;10.26;100.00;97423.50;5033714;28;20637;-84
2023/10/21 02:37:41;;;;;;;39.28;28.42;;;;;;;10.50;100.00;97481.38;5015886;28;20072;-85
2023/10/21 02:40:08;;;;;;;44.05;29.83;;;;;;;10.46;100.00;97487.78;5016043;28;20465;-85
2023/10/21 02:42:34;;;;;;;39.72;29.20;;;;;;;10.37;100.00;97467.72;5015941;28;20040;-85
2023/10/21 02:45:00;;;;;;;39.55;28.90;;;;;;;10.53;100.00;97491.53;5015842;28;20128;-85
2023/10/21 02:47:25;;;;;;;39.20;28.75;;;;;;;10.53;100.00;97486.31;5033653;28;20112;-85
2023/10/21 02:49:51;;;;;;;42.88;30.27;;;;;;;10.33;100.00;97461.91;5033656;28;20033;-85
2023/10/21 02:52:16;;;;;;;44.28;30.10;;;;;;;10.48;100.00;97494.50;5015422;28;20547;-85
2023/10/21 02:54:41;;;;;;;40.15;28.23;;;;;;;10.23;100.00;97438.38;5033746;28;20112;-85
2023/10/21 02:57:07;;;;;;;39.65;28.02;;;;;;;10.42;100.00;97471.59;5033369;28;20722;-85
2023/10/21 02:59:34;;;;;;;39.72;27.25;;;;;;;10.39;100.00;97464.00;5033500;28;20167;-85
2023/10/21 03:01:59;;;;;;;42.53;28.60;;;;;;;10.52;100.00;97463.84;5015083;28;20033;-84
2023/10/21 03:04:24;;;;;;;42.97;29.75;;;;;;;10.22;100.00;97404.69;5033347;28;20372;-85
2023/10/21 03:06:50;;;;;;;38.95;26.90;;;;;;;10.51;100.00;97446.59;5033193;28;20026;-85
2023/10/21 03:09:16;;;;;;;35.65;27.42;;;;;;;10.49;100.00;97454.53;5033217;28;20025;-85
2023/10/21 03:11:42;;;;;;;43.38;30.98;;;;;;;10.22;100.00;97402.91;5033317;28;20037;-85
2023/10/21 03:14:07;;;;;;;36.63;27.77;;;;;;;10.22;100.00;97405.50;5033068;28;20484;-85
2023/10/21 03:16:32;;;;;;;38.05;28.13;;;;;;;10.41;100.00;97433.50;5015333;28;20036;-85
2023/10/21 03:18:58;;;;;;;37.70;27.50;;;;;;;10.23;100.00;97404.53;5032835;28;20388;-85
2023/10/21 03:21:23;;;;;;;30.48;25.33;;;;;;;10.43;100.00;97438.56;5015119;28;20488;-85
2023/10/21 03:23:48;;;;;;;32.40;24.95;;;;;;;10.49;100.00;97446.72;5033092;28;20037;-85
2023/10/21 03:26:14;;;;;;;33.42;25.95;;;;;;;10.23;100.00;97412.34;5015002;28;20037;-84
2023/10/21 03:28:40;;;;;;;35.58;26.33;;;;;;;10.39;100.00;97435.38;5014716;28;20041;-85
2023/10/21 03:31:06;;;;;;;32.40;25.05;;;;;;;10.18;100.00;97405.88;4995079;28;20482;-85
2023/10/21 03:33:32;;;;;;;33.40;26.15;;;;;;;10.41;100.00;97443.91;4995490;28;20036;-85
2023/10/21 03:36:04;;;;;;;37.13;28.40;;;;;;;10.11;100.00;97395.16;5012755;28;20072;-84
2023/10/21 03:38:30;;;;;;;33.22;26.45;;;;;;;10.41;100.00;97432.69;5013132;28;20083;-85
2023/10/21 03:40:55;;;;;;;31.85;25.70;;;;;;;10.49;100.00;97454.53;5013069;28;20109;-84
2023/10/21 03:43:21;;;;;;;35.90;25.92;;;;;;;10.19;100.00;97426.56;4994857;28;20492;-84
2023/10/21 03:45:46;;;;;;;29.63;23.08;;;;;;;10.37;100.00;97459.91;5012843;28;20033;-85
2023/10/21 03:48:11;;;;;;;32.75;27.10;;;;;;;10.38;100.00;97470.19;5012879;28;20038;-84
2023/10/21 03:50:37;;;;;;;30.83;25.58;;;;;;;10.21;100.00;97444.66;4975437;28;20057;-85
2023/10/21 03:53:03;;;;;;;32.88;25.88;;;;;;;10.34;100.00;97467.94;4975912;28;20065;-84
2023/10/21 03:55:28;;;;;;;32.35;26.05;;;;;;;10.20;100.00;97432.59;4993326;28;20391;-85
2023/10/21 03:57:54;;;;;;;30.13;24.60;;;;;;;10.24;100.00;97447.88;4993146;28;20036;-85
2023/10/21 04:00:20;;;;;;;37.65;28.38;;;;;;;10.17;100.00;97427.63;4992796;28;20030;-85
2023/10/21 04:02:45;;;;;;;35.25;27.52;;;;;;;10.17;100.00;97438.03;4992721;28;20426;-84
2023/10/21 04:05:11;;;;;;;37.03;28.02;;;;;;;10.07;100.00;97447.50;4992902;28;20058;-85
2023/10/21 04:07:36;;;;;;;38.58;28.10;;;;;;;10.13;100.00;97463.47;4992788;28;20031;-85
2023/10/21 04:10:01;;;;;;;39.25;27.75;;;;;;;9.89;100.00;97429.81;4932267;29;20035;-84
2023/10/21 04:12:27;;;;;;;32.47;25.77;;;;;;;9.82;100.00;97452.09;4932613;29;20075;-84
2023/10/21 04:14:52;;;;;;;36.67;25.63;;;;;;;9.68;100.00;97444.50;4913416;29;20511;-85
2023/10/21 04:17:18;;;;;;;33.20;27.02;;;;;;;9.88;100.00;97458.56;4913341;29;20056;-85
2023/10/21 04:19:43;;;;;;;31.50;25.02;;;;;;;9.68;100.00;97418.53;4913476;29;20036;-84
2023/10/21 04:22:09;;;;;;;38.13;28.92;;;;;;;10.00;100.00;97468.00;4913163;29;20044;-85
2023/10/21 04:24:34;;;;;;;34.63;26.35;;;;;;;9.64;100.00;97417.09;4913188;29;20040;-85
2023/10/21 04:26:59;;;;;;;32.22;25.13;;;;;;;9.61;100.00;97443.38;4917433;29;20051;-84
2023/10/21 04:29:25;;;;;;;31.88;24.42;;;;;;;9.53;100.00;97435.34;4932340;29;20063;-85
2023/10/21 04:31:50;;;;;;;29.60;23.42;;;;;;;9.83;100.00;97490.13;4932570;29;20379;-85
2023/10/21 04:34:15;;;;;;;29.35;23.55;;;;;;;9.81;100.00;97485.97;4932063;29;20043;-84
2023/10/21 04:36:41;;;;;;;31.02;23.85;;;;;;;10.08;100.00;97545.44;4932214;29;20119;-84
2023/10/21 04:39:07;;;;;;;29.88;24.02;;;;;;;9.92;100.00;97535.38;4932018;29;20036;-84
2023/10/21 04:41:33;;;;;;;32.30;25.30;;;;;;;9.90;100.00;97529.47;4943602;29;20446;-84
2023/10/21 04:43:58;;;;;;;28.92;24.95;;;;;;;9.90;100.00;97534.66;4936534;29;20066;-84
2023/10/21 04:46:24;;;;;;;31.65;26.08;;;;;;;10.15;100.00;97572.59;4958375;28;20151;-84
2023/10/21 04:48:50;;;;;;;27.73;23.48;;;;;;;10.21;100.00;97585.97;5013758;28;20049;-84
2023/10/21 04:51:15;;;;;;;30.05;25.33;;;;;;;10.05;100.00;97549.09;5007731;28;20493;-84
2023/10/21 04:53:40;;;;;;;33.65;25.50;;;;;;;10.08;100.00;97543.66;4997211;28;20037;-84
2023/10/21 04:56:06;;;;;;;33.55;27.13;;;;;;;10.03;100.00;97535.38;5029227;28;20037;-84
2023/10/21 04:58:31;;;;;;;29.70;25.02;;;;;;;9.97;100.00;97541.03;5032020;28;20026;-85
2023/10/21 05:00:56;;;;;;;33.67;26.35;;;;;;;9.83;100.00;97547.31;4999516;28;20441;-85
2023/10/21 05:03:22;;;;;;;33.20;24.83;;;;;;;9.98;100.00;97573.91;4997813;28;20100;-84
2023/10/21 05:05:47;;;;;;;32.00;24.80;;;;;;;10.08;100.00;97585.25;5016048;28;20048;-85
2023/10/21 05:08:13;;;;;;;33.45;25.67;;;;;;;9.93;100.00;97553.44;4997979;28;20026;-84
2023/10/21 05:10:38;;;;;;;30.10;23.13;;;;;;;9.97;100.00;97580.88;4998242;28;20044;-84
2023/10/21 05:13:04;;;;;;;29.52;22.75;;;;;;;10.15;100.00;97599.44;4997903;28;20033;-85
2023/10/21 05:15:29;;;;;;;32.08;24.98;;;;;;;9.93;100.00;97569.06;5015656;28;20026;-85
2023/10/21 05:17:54;;;;;;;32.50;25.25;;;;;;;10.15;100.00;97628.03;5018253;28;20389;-85
2023/10/21 05:20:20;;;;;;;33.33;25.48;;;;;;;10.21;100.00;97638.00;5025535;28;20095;-85
2023/10/21 05:22:45;;;;;;;29.60;23.50;;;;;;;10.15;100.00;97630.63;5035180;28;20084;-85
2023/10/21 05:25:11;;;;;;;31.50;24.38;;;;;;;10.15;100.00;97622.84;5017257;28;20035;-85
2023/10/21 05:27:36;;;;;;;28.73;23.65;;;;;;;10.16;100.00;97611.50;5035405;28;20076;-85
2023/10/21 05:30:03;;;;;;;34.78;25.15;;;;;;;9.97;100.00;97591.28;5035048;28;20113;-85
2023/10/21 05:32:28;;;;;;;28.83;23.65;;;;;;;10.16;100.00;97642.72;5034832;28;20037;-85
2023/10/21 05:34:53;;;;;;;28.25;23.35;;;;;;;10.04;100.00;97619.44;5017516;28;20036;-85
2023/10/21 05:37:19;;;;;;;32.38;25.77;;;;;;;10.01;100.00;97638.69;5034775;28;20033;-85
2023/10/21 05:39:44;;;;;;;30.08;23.30;;;;;;;10.11;100.00;97659.63;5035329;28;20469;-85
2023/10/21 05:42:10;;;;;;;30.45;25.85;;;;;;;9.52;100.00;97576.56;5013216;28;20033;-84
2023/10/21 05:44:35;;;;;;;32.00;24.63;;;;;;;10.06;100.00;97664.34;5034867;28;20083;-85
2023/10/21 05:47:01;;;;;;;31.83;24.13;;;;;;;10.04;100.00;97674.06;5016887;28;20076;-85
2023/10/21 05:49:26;;;;;;;35.03;26.15;;;;;;;10.01;100.00;97672.50;5017025;28;20025;-85
2023/10/21 05:51:51;;;;;;;35.85;28.00;;;;;;;10.04;100.00;97694.84;5034836;28;20036;-85
2023/10/21 05:54:17;;;;;;;33.42;25.40;;;;;;;9.91;100.00;97689.75;5016546;28;20037;-85
2023/10/21 05:56:42;;;;;;;34.15;27.08;;;;;;;9.94;100.00;97695.56;5034747;28;20105;-85
2023/10/21 05:59:07;;;;;;;32.25;26.95;;;;;;;9.87;100.00;97683.94;5034734;28;20034;-85
2023/10/21 06:01:33;;;;;;;32.28;27.45;;;;;;;9.94;100.00;97681.69;5034657;28;20036;-85
2023/10/21 06:03:58;;;;;;;35.38;27.80;;;;;;;9.86;100.00;97665.84;5034203;28;20032;-85
2023/10/21 06:06:23;;;;;;;28.40;24.20;;;;;;;10.09;100.00;97695.34;5034177;28;20595;-85
2023/10/21 06:08:49;;;;;;;34.10;25.75;;;;;;;10.06;100.00;97691.19;5034520;28;20022;-85
2023/10/21 06:11:14;;;;;;;30.52;26.23;;;;;;;9.98;100.00;97689.16;5034094;28;20057;-85
2023/10/21 06:13:40;;;;;;;39.20;29.35;;;;;;;9.89;100.00;97674.25;5034458;28;20037;-85
2023/10/21 06:16:06;;;;;;;37.22;29.42;;;;;;;10.00;100.00;97686.44;5034297;28;20143;-85
2023/10/21 06:18:32;;;;;;;34.53;27.63;;;;;;;10.11;100.00;97709.88;5034160;28;20032;-85
2023/10/21 06:20:57;;;;;;;41.30;30.90;;;;;;;10.08;100.00;97704.91;5016516;28;20025;-85
2023/10/21 06:23:23;;;;;;;45.78;33.97;;;;;;;9.87;100.00;97683.13;5033932;28;20144;-85
2023/10/21 06:25:48;;;;;;;48.40;35.65;;;;;;;9.97;100.00;97689.28;5034465;28;20392;-85
2023/10/21 06:28:14;;;;;;;64.97;43.47;;;;;;;10.02;100.00;97707.97;5033632;28;20045;-85
2023/10/21 06:30:40;;;;;;;62.15;40.75;;;;;;;10.00;100.00;97710.69;5033897;28;20056;-85
2023/10/21 06:33:07;;;;;;;73.18;42.88;;;;;;;9.89;100.00;97696.81;5033941;28;20455;-85
2023/10/21 06:35:33;;;;;;;73.93;45.15;;;;;;;10.03;100.00;97733.03;5034059;28;20064;-85
2023/10/21 06:37:58;;;;;;;83.30;48.78;;;;;;;9.70;100.00;97713.81;5033944;28;20025;-85
2023/10/21 06:40:23;;;;;;;87.20;53.33;;;;;;;9.81;100.00;97730.38;5033483;28;20029;-85
2023/10/21 06:42:49;;;;;;;66.97;43.17;;;;;;;9.75;100.00;97739.47;5015971;28;20022;-85
2023/10/21 06:45:14;;;;;;;56.88;39.55;;;;;;;9.87;100.00;97766.31;5033505;28;20468;-85
2023/10/21 06:47:40;;;;;;;47.10;34.70;;;;;;;9.66;100.00;97734.94;5015715;28;20503;-85
2023/10/21 06:50:05;;;;;;;47.65;33.03;;;;;;;9.93;100.00;97765.88;5033787;28;20028;-85
2023/10/21 06:52:31;;;;;;;39.53;29.52;;;;;;;10.08;100.00;97782.94;5033762;28;20117;-86
2023/10/21 06:54:57;;;;;;;42.53;27.70;;;;;;;9.87;100.00;97732.53;5033543;28;20018;-86
2023/10/21 06:57:22;;;;;;;39.35;27.42;;;;;;;9.86;100.00;97736.03;5033260;28;20030;-86
2023/10/21 06:59:48;;;;;;;30.85;24.50;;;;;;;10.10;100.00;97782.81;5015502;28;20036;-86
2023/10/21 07:02:14;;;;;;;30.42;25.33;;;;;;;9.96;100.00;97782.06;5032964;28;20139;-86
2023/10/21 07:04:39;;;;;;;31.33;26.30;;;;;;;10.11;100.00;97808.75;5033547;28;20047;-86
2023/10/21 07:07:04;;;;;;;29.65;25.10;;;;;;;10.15;100.00;97814.50;5032775;28;20493;-86
2023/10/21 07:09:30;;;;;;;39.08;26.10;;;;;;;9.82;100.00;97768.41;5015320;28;20017;-86
2023/10/21 07:11:56;;;;;;;36.33;26.08;;;;;;;10.08;100.00;97821.97;5033276;28;20067;-86
2023/10/21 07:14:21;;;;;;;35.78;26.60;;;;;;;10.17;100.00;97820.44;5033001;28;20029;-86
2023/10/21 07:16:47;;;;;;;31.30;26.67;;;;;;;10.19;100.00;97821.16;5015359;28;20048;-86
2023/10/21 07:19:12;;;;;;;31.13;25.67;;;;;;;10.27;100.00;97828.44;5015382;28;20032;-86
2023/10/21 07:21:37;;;;;;;37.10;28.25;;;;;;;10.18;100.00;97802.13;5015431;28;20032;-86
2023/10/21 07:24:03;;;;;;;31.40;26.25;;;;;;;10.37;100.00;97840.66;5015301;28;20029;-86
2023/10/21 07:26:29;;;;;;;30.13;24.98;;;;;;;10.39;100.00;97849.16;5014501;28;20029;-86
2023/10/21 07:28:54;;;;;;;31.88;25.55;;;;;;;10.16;100.00;97818.78;5015201;28;20029;-86
2023/10/21 07:31:20;;;;;;;31.48;25.02;;;;;;;10.46;100.00;97854.75;5032863;28;20037;-86
2023/10/21 07:33:45;;;;;;;29.85;25.10;;;;;;;10.17;100.00;97802.25;5015291;28;20116;-86
2023/10/21 07:36:10;;;;;;;32.33;26.50;;;;;;;10.56;100.00;97873.94;5032849;28;20033;-86
2023/10/21 07:38:36;;;;;;;30.73;26.17;;;;;;;10.58;100.00;97879.88;5032713;28;20017;-86
2023/10/21 07:41:11;;;;;;;29.73;24.25;;;;;;;10.44;100.00;97861.81;5032752;28;20030;-86
2023/10/21 07:43:36;;;;;;;31.05;25.17;;;;;;;10.33;100.00;97838.41;4990549;28;20494;-85
2023/10/21 07:46:03;;;;;;;30.95;25.58;;;;;;;10.77;100.00;97889.72;4990791;28;20112;-85
2023/10/21 07:48:29;;;;;;;29.45;24.63;;;;;;;10.75;100.00;97857.75;4974237;28;20133;-86
2023/10/21 07:50:55;;;;;;;29.25;25.20;;;;;;;11.03;100.00;97853.03;4990767;28;20192;-86
2023/10/21 07:53:21;;;;;;;28.38;25.02;;;;;;;11.52;100.00;97891.75;4990450;28;20783;-86
2023/10/21 07:55:49;;;;;;;29.83;25.38;;;;;;;11.71;100.00;97886.75;4974377;28;20170;-86
2023/10/21 07:58:15;;;;;;;28.08;23.95;;;;;;;11.68;100.00;97858.31;4990377;28;20027;-86
2023/10/21 08:00:41;;;;;;;27.38;23.23;;;;;;;12.16;100.00;97911.91;4990491;28;20112;-86
2023/10/21 08:03:06;;;;;;;29.27;24.13;;;;;;;12.44;100.00;97923.56;4974176;28;20042;-86
2023/10/21 08:05:32;;;;;;;28.40;23.40;;;;;;;12.49;100.00;97908.34;4974000;28;20121;-86
2023/10/21 08:07:57;;;;;;;27.88;23.80;;;;;;;12.37;100.00;97875.41;4990207;28;20054;-86
2023/10/21 08:10:22;;;;;;;25.35;22.23;;;;;;;12.33;100.00;97867.00;4990265;28;20026;-86
2023/10/21 08:12:48;;;;;;;24.30;21.65;;;;;;;12.59;100.00;97918.84;4990344;28;20045;-86
2023/10/21 08:15:13;;;;;;;26.65;23.60;;;;;;;12.45;100.00;97906.94;4990427;28;20038;-86
2023/10/21 08:17:38;;;;;;;30.40;24.02;;;;;;;12.49;100.00;97913.56;4990437;28;20030;-86
2023/10/21 08:20:04;;;;;;;29.17;24.20;;;;;;;12.41;100.00;97885.47;4994265;28;20088;-86
2023/10/21 08:22:32;;;;;;;24.80;22.10;;;;;;;12.77;100.00;97913.88;5026880;28;20100;-86
2023/10/21 08:24:57;;;;;;;28.27;24.65;;;;;;;12.76;100.00;97910.44;5013871;28;20104;-88
2023/10/21 08:27:23;;;;;;;27.73;22.23;;;;;;;12.98;100.00;97926.00;5013374;28;20481;-87
2023/10/21 08:29:48;;;;;;;27.92;24.33;;;;;;;13.03;100.00;97940.47;5014182;28;20048;-85
2023/10/21 08:32:14;;;;;;;25.73;22.98;;;;;;;12.92;100.00;97904.78;5032287;28;20362;-85
2023/10/21 08:34:40;;;;;;;25.95;23.02;;;;;;;13.03;100.00;97904.72;5032119;28;20088;-86
2023/10/21 08:37:07;;;;;;;28.95;25.88;;;;;;;13.38;100.00;97954.03;5031953;28;20428;-85
2023/10/21 08:39:34;;;;;;;27.98;24.35;;;;;;;13.42;100.00;97946.75;5009979;28;20088;-85
2023/10/21 08:42:00;;;;;;;26.60;23.77;;;;;;;13.56;100.00;97969.94;5031607;28;20385;-85
2023/10/21 08:44:25;;;;;;;27.80;24.77;;;;;;;13.42;100.00;97931.06;5031441;28;20022;-87
2023/10/21 08:46:54;;;;;;;27.80;24.77;;;;;;;13.74;100.00;97975.41;5014136;28;20030;-89
2023/10/21 08:49:20;;;;;;;26.15;23.35;;;;;;;13.75;100.00;97963.97;5013914;28;20030;-89
2023/10/21 08:51:47;;;;;;;27.83;24.30;;;;;;;13.86;100.00;97971.72;5014103;28;20400;-90
2023/10/21 08:54:14;;;;;;;29.80;26.35;;;;;;;13.82;100.00;97987.78;5014436;28;20025;-90
2023/10/21 08:56:39;;;;;;;28.55;25.23;;;;;;;13.85;100.00;97998.00;5013647;28;20040;-90
2023/10/21 08:59:05;;;;;;;28.30;24.20;;;;;;;13.91;100.00;98000.94;5013674;28;20392;-90
2023/10/21 09:01:31;;;;;;;32.40;27.58;;;;;;;13.95;100.00;97998.88;5013333;28;20033;-89
2023/10/21 09:03:57;;;;;;;31.52;28.10;;;;;;;13.99;100.00;98000.28;5013273;28;20103;-87
2023/10/21 09:06:23;;;;;;;31.63;27.52;;;;;;;14.04;100.00;98003.31;5013293;28;20039;-89
2023/10/21 09:08:49;;;;;;;37.28;31.75;;;;;;;14.01;100.00;98000.13;5031481;28;20494;-90
2023/10/21 09:11:24;;;;;;;37.30;31.48;;;;;;;13.97;100.00;97991.72;5013281;28;20034;-90
2023/10/21 09:13:52;;;;;;;34.47;30.50;;;;;;;14.00;100.00;98011.56;5013491;28;20366;-90
2023/10/21 09:16:26;;;;;;;35.63;29.25;;;;;;;13.91;100.00;97998.31;5013167;28;20029;-90
2023/10/21 09:19:00;;;;;;;36.03;29.60;;;;;;;14.02;100.00;98022.72;5013236;28;20025;-90
2023/10/21 09:21:37;;;;;;;32.47;28.98;;;;;;;14.06;100.00;98026.72;5013049;28;20381;-90
2023/10/21 09:24:04;;;;;;;35.50;31.27;;;;;;;14.10;100.00;98022.88;5013090;28;20025;-90
2023/10/21 09:26:34;;;;;;;35.65;29.35;;;;;;;14.13;100.00;98020.84;5012887;28;20057;-90
2023/10/21 09:29:08;;;;;;;40.88;34.22;;;;;;;14.18;100.00;98026.50;5013386;28;20136;-90
2023/10/21 09:31:53;;;;;;;38.45;33.97;;;;;;;14.23;100.00;98029.53;5016370;28;20385;-90
2023/10/21 09:34:32;;;;;;;45.28;34.38;;;;;;;14.03;100.00;97996.44;5016497;28;20076;-90
2023/10/21 09:36:59;;;;;;;38.92;33.03;;;;;;;14.08;100.00;98002.09;5016997;28;20029;-90
2023/10/21 09:39:27;;;;;;;40.55;34.10;;;;;;;14.19;100.00;98022.06;5016588;28;20033;-90
2023/10/21 09:41:52;;;;;;;41.30;32.72;;;;;;;14.10;100.00;98013.25;5016657;28;20389;-89
2023/10/21 09:44:18;;;;;;;38.22;32.95;;;;;;;14.25;100.00;98029.41;5016666;28;20033;-90
2023/10/21 09:46:45;;;;;;;37.38;32.13;;;;;;;14.28;100.00;98023.88;5016557;28;20095;-89
2023/10/21 09:49:15;;;;;;;37.17;31.83;;;;;;;14.42;100.00;98041.03;5016881;28;20384;-90
2023/10/21 09:51:53;;;;;;;38.33;30.63;;;;;;;14.22;100.00;98013.97;5016483;28;20075;-90
2023/10/21 09:54:26;;;;;;;38.40;30.45;;;;;;;14.45;100.00;98046.84;5016554;28;20079;-90
2023/10/21 09:56:53;;;;;;;39.38;31.88;;;;;;;14.48;100.00;98041.34;5016496;28;20033;-89
2023/10/21 09:59:21;;;;;;;40.13;32.47;;;;;;;14.52;100.00;98044.50;5016340;28;20025;-89
2023/10/21 10:01:47;;;;;;;40.20;31.73;;;;;;;14.52;100.00;98044.50;5016387;28;20076;-89
2023/10/21 10:04:14;;;;;;;42.15;33.80;;;;;;;14.61;100.00;98054.19;5016235;28;20554;-90
2023/10/21 10:06:40;;;;;;;41.78;32.88;;;;;;;14.62;100.00;98049.75;5011288;28;20038;-90
2023/10/21 10:09:06;;;;;;;44.83;33.08;;;;;;;14.64;100.00;98045.22;4947102;28;20130;-90
2023/10/21 10:11:35;;;;;;;45.35;33.60;;;;;;;14.59;100.00;98039.56;4917593;29;20036;-89
2023/10/21 10:14:02;;;;;;;39.78;32.35;;;;;;;14.66;100.00;98049.38;4918017;29;20051;-88
2023/10/21 10:16:28;;;;;;;47.90;35.70;;;;;;;14.70;100.00;98055.97;4917745;29;20098;-89
2023/10/21 10:18:56;;;;;;;43.08;32.22;;;;;;;14.66;100.00;98038.03;4917983;29;20044;-89
2023/10/21 10:21:22;;;;;;;45.17;35.47;;;;;;;14.76;100.00;98054.63;4917702;29;20404;-89
2023/10/21 10:23:51;;;;;;;51.00;37.10;;;;;;;14.69;100.00;98049.09;4917829;29;20040;-90
2023/10/21 10:26:38;;;;;;;46.30;35.00;;;;;;;14.80;100.00;98066.50;4917924;29;20040;-89
2023/10/21 10:29:30;;;;;;;50.65;36.70;;;;;;;14.83;100.00;98063.59;4917861;29;20043;-89
2023/10/21 10:32:14;;;;;;;49.28;36.85;;;;;;;14.87;100.00;98064.13;4877101;29;20080;-89
2023/10/21 10:34:57;;;;;;;50.47;36.70;;;;;;;14.89;100.00;98072.69;4861355;29;20044;-89
2023/10/21 10:37:36;;;;;;;44.78;34.85;;;;;;;14.89;100.00;98072.69;4876973;29;20052;-89
2023/10/21 10:40:32;;;;;;;43.08;33.42;;;;;;;14.87;100.00;98049.22;4887595;29;20130;-89
2023/10/21 10:42:58;;;;;;;45.63;35.78;;;;;;;14.96;100.00;98069.41;4879101;29;20109;-89
2023/10/21 10:45:23;;;;;;;42.60;32.70;;;;;;;15.03;100.00;98077.53;4879739;29;20192;-89
2023/10/21 10:47:59;;;;;;;40.72;31.58;;;;;;;15.11;100.00;98079.47;4879950;29;20045;-89
2023/10/21 10:50:24;;;;;;;35.53;29.65;;;;;;;15.13;100.00;98088.84;4895428;29;20047;-89
2023/10/21 10:52:50;;;;;;;37.90;30.08;;;;;;;15.10;100.00;98096.16;4895570;29;20126;-89
2023/10/21 10:55:15;;;;;;;41.72;31.73;;;;;;;15.22;100.00;98116.03;4879739;29;20040;-89
2023/10/21 10:57:42;;;;;;;35.95;30.23;;;;;;;15.15;100.00;98094.78;4864120;29;20048;-88
2023/10/21 11:00:10;;;;;;;42.67;33.03;;;;;;;15.28;100.00;98107.63;4879638;29;20048;-89
2023/10/21 11:02:44;;;;;;;36.97;29.13;;;;;;;15.16;100.00;98088.56;4879164;29;20051;-89
2023/10/21 11:05:20;;;;;;;37.70;29.10;;;;;;;15.34;100.00;98101.00;4879665;29;20036;-89
2023/10/21 11:07:46;;;;;;;38.70;29.75;;;;;;;15.31;100.00;98096.03;4891697;29;20131;-89
2023/10/21 11:10:17;;;;;;;36.33;28.45;;;;;;;15.43;100.00;98116.72;4917107;29;20064;-88